Time;durP1;ratioP1;P1;durP2;ratioP2;P2;SDS_P1;SDS_P2;PMS_P1;PMS_P2;Temp;Humidity;BMP_temperature;BMP_pressure;BME280_temperature;BME280_humidity;BME280_pressure;Samples;Min_cycle;Max_cycle;Signal;HPM_P1;HPM_P2
2023/01/12 00:01:29;;;;;;;16.00;7.47;;;21.40;59.20;;;;;;5091134;28;20111;-76
2023/01/12 00:03:55;;;;;;;17.73;8.27;;;21.50;59.10;;;;;;5066784;28;20028;-76
2023/01/12 00:06:22;;;;;;;14.57;7.70;;;21.50;58.80;;;;;;5081771;28;20024;-76
2023/01/12 00:08:49;;;;;;;14.18;7.07;;;21.50;58.80;;;;;;5091413;28;20054;-76
2023/01/12 00:11:17;;;;;;;11.38;6.45;;;21.60;58.70;;;;;;5094013;28;20055;-76
2023/01/12 00:13:43;;;;;;;13.50;8.02;;;21.50;58.50;;;;;;5082134;28;20050;-76
2023/01/12 00:16:33;;;;;;;14.18;7.13;;;21.50;58.40;;;;;;5083400;28;20032;-76
2023/01/12 00:19:11;;;;;;;14.75;6.53;;;21.50;58.20;;;;;;5095232;28;20044;-76
2023/01/12 00:24:25;;;;;;;10.95;6.20;;;21.40;58.20;;;;;;5095186;28;20037;-76
2023/01/12 00:26:52;;;;;;;18.63;6.65;;;21.40;58.20;;;;;;5073275;28;20020;-76
2023/01/12 00:29:18;;;;;;;13.02;6.80;;;21.30;58.20;;;;;;5059996;28;20119;-76
2023/01/12 00:31:45;;;;;;;18.77;6.88;;;21.50;58.30;;;;;;5075749;28;20024;-76
2023/01/12 00:34:11;;;;;;;16.15;6.72;;;21.40;58.10;;;;;;5085786;28;20032;-76
2023/01/12 00:36:37;;;;;;;15.27;7.43;;;21.60;57.90;;;;;;5076103;28;20375;-76
2023/01/12 00:39:03;;;;;;;18.83;6.65;;;21.50;58.00;;;;;;5076768;28;20036;-76
2023/01/12 00:46:58;;;;;;;12.82;7.97;;;21.40;58.10;;;;;;5093837;28;20046;-76
2023/01/12 00:49:24;;;;;;;14.13;7.97;;;21.50;58.10;;;;;;5094691;28;20071;-75
2023/01/12 00:51:50;;;;;;;12.93;7.82;;;21.40;57.90;;;;;;5074894;28;20040;-76
2023/01/12 00:54:16;;;;;;;13.55;7.38;;;21.30;58.00;;;;;;5094119;28;20032;-76
2023/01/12 00:56:42;;;;;;;22.20;8.23;;;21.30;58.20;;;;;;5092398;28;20028;-76
2023/01/12 00:59:08;;;;;;;11.90;7.07;;;21.20;58.10;;;;;;5043157;28;20060;-75
2023/01/12 01:01:34;;;;;;;15.23;6.72;;;21.30;58.20;;;;;;5092545;28;20483;-76
2023/01/12 01:04:01;;;;;;;14.07;7.90;;;21.10;58.00;;;;;;5094652;28;20032;-76
2023/01/12 01:06:27;;;;;;;11.65;7.53;;;21.10;58.20;;;;;;5093132;28;20361;-76
2023/01/12 01:08:53;;;;;;;14.90;6.75;;;21.10;58.20;;;;;;5094348;28;20106;-76
2023/01/12 01:11:19;;;;;;;10.27;6.70;;;21.10;58.00;;;;;;5093746;28;20052;-76
2023/01/12 01:13:45;;;;;;;13.85;6.53;;;21.20;58.10;;;;;;5071960;28;20039;-76
2023/01/12 01:16:15;;;;;;;10.85;6.45;;;21.10;57.90;;;;;;5084875;28;20028;-76
2023/01/12 01:18:42;;;;;;;15.27;6.90;;;21.20;57.80;;;;;;5073597;28;20036;-76
2023/01/12 01:21:10;;;;;;;11.85;6.57;;;21.20;57.70;;;;;;5077286;28;20040;-76
2023/01/12 01:23:37;;;;;;;14.48;6.30;;;21.20;57.80;;;;;;5075325;28;20043;-76
2023/01/12 01:26:05;;;;;;;7.60;4.82;;;21.20;57.70;;;;;;5094044;28;20039;-76
2023/01/12 01:28:31;;;;;;;10.75;5.95;;;21.50;57.60;;;;;;5083707;28;20047;-76
2023/01/12 01:31:11;;;;;;;14.60;6.55;;;21.40;57.20;;;;;;5029602;28;20196;-76
2023/01/12 01:33:38;;;;;;;15.38;6.03;;;21.40;57.00;;;;;;5031403;28;20470;-75
2023/01/12 01:36:05;;;;;;;9.35;5.93;;;21.50;57.20;;;;;;5028965;28;20037;-76
2023/01/12 01:38:31;;;;;;;8.70;5.65;;;21.30;57.20;;;;;;4981866;28;20052;-76
2023/01/12 01:40:57;;;;;;;11.32;6.10;;;21.30;57.20;;;;;;5031353;28;20120;-76
2023/01/12 01:43:25;;;;;;;11.18;5.60;;;21.30;57.30;;;;;;5012785;28;20528;-76
2023/01/12 01:46:05;;;;;;;12.70;7.00;;;21.30;57.60;;;;;;5002514;28;20034;-76
2023/01/12 01:48:35;;;;;;;13.05;6.38;;;21.20;56.80;;;;;;5014222;28;20378;-76
2023/01/12 01:51:07;;;;;;;10.32;5.57;;;21.20;57.40;;;;;;5029846;28;20041;-76
2023/01/12 01:53:35;;;;;;;7.85;4.80;;;21.10;57.30;;;;;;5031046;28;20494;-76
2023/01/12 01:56:10;;;;;;;10.70;5.53;;;21.20;57.30;;;;;;5013446;28;20050;-76
2023/01/12 01:58:41;;;;;;;12.18;6.13;;;21.20;56.80;;;;;;5028924;28;20074;-76
2023/01/12 02:01:09;;;;;;;10.85;6.57;;;21.30;56.80;;;;;;5029109;28;20044;-76
2023/01/12 02:03:36;;;;;;;14.02;7.00;;;21.10;57.10;;;;;;5089903;28;20031;-76
2023/01/12 02:06:05;;;;;;;12.10;6.55;;;21.00;57.30;;;;;;5092705;28;20126;-76
2023/01/12 02:08:50;;;;;;;8.73;5.53;;;21.00;57.30;;;;;;5092802;28;20127;-75
2023/01/12 02:17:13;;;;;;;10.20;6.00;;;21.10;57.00;;;;;;5092137;28;20391;-76
2023/01/12 02:20:01;;;;;;;10.63;4.97;;;21.10;56.90;;;;;;5092212;28;20077;-76
2023/01/12 02:22:33;;;;;;;10.02;5.40;;;21.10;57.10;;;;;;5092208;28;20032;-76
2023/01/12 02:25:21;;;;;;;9.05;5.00;;;21.00;56.70;;;;;;5075171;28;20102;-76
2023/01/12 02:28:08;;;;;;;13.27;5.05;;;21.00;57.00;;;;;;5072928;28;20455;-76
2023/01/12 02:31:08;;;;;;;12.05;5.85;;;21.00;56.80;;;;;;5078136;28;20500;-75
2023/01/12 02:33:47;;;;;;;14.23;6.00;;;21.00;56.70;;;;;;5074816;28;20456;-76
2023/01/12 02:36:36;;;;;;;10.88;4.72;;;21.10;57.00;;;;;;5091555;28;20042;-76
2023/01/12 02:39:28;;;;;;;10.10;5.32;;;21.00;57.00;;;;;;5092557;28;20036;-76
2023/01/12 02:42:41;;;;;;;12.13;5.43;;;21.10;56.80;;;;;;5071174;28;20052;-76
2023/01/12 02:45:20;;;;;;;8.57;6.03;;;21.20;56.20;;;;;;5089122;28;20442;-76
2023/01/12 02:47:55;;;;;;;9.85;5.00;;;21.30;56.10;;;;;;5054454;28;20047;-75
2023/01/12 02:50:34;;;;;;;12.15;5.35;;;21.20;56.40;;;;;;5072032;28;20045;-76
2023/01/12 02:53:09;;;;;;;11.48;6.28;;;21.30;56.20;;;;;;5072289;28;20357;-76
2023/01/12 02:55:36;;;;;;;12.65;6.25;;;21.20;55.70;;;;;;5073149;28;20041;-75
2023/01/12 02:58:05;;;;;;;7.57;4.50;;;21.20;56.10;;;;;;5072855;28;20040;-75
2023/01/12 03:00:33;;;;;;;9.48;4.88;;;21.10;56.40;;;;;;5086527;28;20016;-76
2023/01/12 03:02:59;;;;;;;10.43;5.10;;;21.10;56.40;;;;;;5092432;28;20039;-76
2023/01/12 03:05:25;;;;;;;10.73;5.22;;;21.00;56.10;;;;;;5092111;28;20020;-76
2023/01/12 03:07:57;;;;;;;12.07;6.15;;;21.00;56.40;;;;;;5090153;28;20039;-76
2023/01/12 03:10:49;;;;;;;9.05;5.30;;;20.90;56.40;;;;;;5091692;28;20044;-76
2023/01/12 03:13:16;;;;;;;12.02;5.93;;;20.90;56.50;;;;;;5079074;28;20440;-76
2023/01/12 03:15:49;;;;;;;10.20;5.35;;;20.80;56.50;;;;;;5066575;28;20556;-76
2023/01/12 03:18:32;;;;;;;10.68;5.38;;;20.70;56.70;;;;;;5092296;28;20044;-76
2023/01/12 03:21:06;;;;;;;11.57;6.00;;;20.80;56.30;;;;;;5090862;28;20422;-76
2023/01/12 03:23:49;;;;;;;10.88;5.35;;;20.80;56.40;;;;;;5073158;28;20040;-76
2023/01/12 03:26:21;;;;;;;12.35;5.78;;;20.60;56.30;;;;;;5072014;28;20505;-76
2023/01/12 03:28:55;;;;;;;11.30;5.88;;;20.70;56.40;;;;;;5089149;28;20040;-76
2023/01/12 03:31:21;;;;;;;;;;;20.60;56.30;;;;;;5073670;28;20047;-76
2023/01/12 03:33:47;;;;;;;10.50;4.95;;;20.70;56.40;;;;;;5092074;28;20391;-76
2023/01/12 03:36:55;;;;;;;10.98;5.75;;;20.70;56.20;;;;;;5090998;28;20123;-75
2023/01/12 03:39:24;;;;;;;9.77;5.47;;;20.90;56.10;;;;;;5009654;28;20046;-76
2023/01/12 03:41:57;;;;;;;12.85;7.15;;;20.80;55.80;;;;;;5008415;28;20046;-76
2023/01/12 03:44:45;;;;;;;12.02;6.70;;;20.80;55.60;;;;;;4992979;28;20077;-75
2023/01/12 03:47:27;;;;;;;12.43;5.97;;;20.70;55.90;;;;;;4995004;28;20046;-76
2023/01/12 03:50:32;;;;;;;14.55;6.15;;;20.60;55.70;;;;;;4993787;28;20057;-75
2023/01/12 03:53:01;;;;;;;17.35;7.15;;;20.60;55.90;;;;;;4935285;29;20488;-75
2023/01/12 03:55:29;;;;;;;9.25;5.30;;;20.60;55.90;;;;;;4935671;29;20389;-76
2023/01/12 03:57:56;;;;;;;11.40;5.25;;;20.70;55.80;;;;;;4935512;29;20067;-76
2023/01/12 04:00:23;;;;;;;11.98;6.13;;;20.70;55.70;;;;;;4938440;29;20035;-75
2023/01/12 04:03:00;;;;;;;8.82;6.00;;;20.70;55.40;;;;;;4935850;29;20040;-75
2023/01/12 04:05:26;;;;;;;9.63;5.63;;;20.60;55.50;;;;;;4936652;29;20126;-75
2023/01/12 04:07:52;;;;;;;9.63;5.57;;;20.70;55.70;;;;;;4935674;29;20062;-75
2023/01/12 04:10:18;;;;;;;11.10;6.35;;;20.60;55.50;;;;;;4935245;29;20532;-75
2023/01/12 04:12:44;;;;;;;16.20;6.53;;;20.60;55.40;;;;;;4936273;29;20036;-75
2023/01/12 04:15:10;;;;;;;12.93;6.18;;;20.80;55.40;;;;;;4942241;28;20482;-75
2023/01/12 04:17:36;;;;;;;9.18;5.38;;;20.80;55.40;;;;;;4973952;28;20043;-75
2023/01/12 04:20:03;;;;;;;10.77;5.43;;;20.70;55.30;;;;;;4971722;28;20114;-76
2023/01/12 04:22:44;;;;;;;14.82;6.15;;;20.90;55.30;;;;;;4957625;28;20443;-75
2023/01/12 04:25:19;;;;;;;15.25;6.53;;;20.90;55.10;;;;;;4941525;28;20419;-75
2023/01/12 04:28:01;;;;;;;10.35;6.00;;;20.90;55.00;;;;;;4973549;28;20035;-76
2023/01/12 04:30:31;;;;;;;8.73;5.47;;;20.90;54.90;;;;;;5071329;28;20072;-75
2023/01/12 04:32:59;;;;;;;10.43;5.82;;;20.70;54.90;;;;;;5072794;28;20127;-75
2023/01/12 04:35:26;;;;;;;10.75;5.68;;;20.80;55.00;;;;;;5079491;28;20031;-75
2023/01/12 04:37:52;;;;;;;12.00;5.57;;;21.00;54.50;;;;;;5074934;28;20041;-76
2023/01/12 04:40:19;;;;;;;9.57;6.00;;;20.90;54.80;;;;;;5077000;28;20032;-76
2023/01/12 04:43:03;;;;;;;11.90;5.65;;;20.90;54.80;;;;;;5084091;28;20028;-75
2023/01/12 04:45:32;;;;;;;10.25;5.88;;;20.90;55.20;;;;;;5089101;28;20040;-75
2023/01/12 04:48:07;;;;;;;11.10;6.38;;;21.00;54.60;;;;;;5094899;28;20036;-75
2023/01/12 04:50:33;;;;;;;14.30;6.90;;;21.10;54.70;;;;;;5074454;28;20085;-75
2023/01/12 04:53:04;;;;;;;9.40;6.50;;;20.90;54.80;;;;;;5094879;28;20030;-75
2023/01/12 04:55:30;;;;;;;12.65;7.30;;;20.70;55.20;;;;;;5094566;28;20491;-75
2023/01/12 04:57:57;;;;;;;20.27;7.65;;;20.50;55.30;;;;;;5082799;28;20479;-75
2023/01/12 05:00:23;;;;;;;13.35;6.97;;;20.60;55.30;;;;;;5082051;28;20059;-75
2023/01/12 05:02:52;;;;;;;10.40;5.90;;;20.50;55.60;;;;;;5094636;28;20388;-75
2023/01/12 05:05:18;;;;;;;14.05;6.82;;;20.50;55.60;;;;;;5075467;28;20038;-76
2023/01/12 05:10:30;;;;;;;12.43;6.50;;;20.40;55.50;;;;;;5011518;28;20148;-75
2023/01/12 05:12:56;;;;;;;17.05;7.95;;;20.40;55.40;;;;;;5001864;28;20507;-76
2023/01/12 05:15:22;;;;;;;14.57;6.53;;;20.30;55.30;;;;;;4982256;28;20136;-75
2023/01/12 05:17:48;;;;;;;16.75;6.75;;;20.20;55.10;;;;;;4992325;28;20039;-75
2023/01/12 05:20:15;;;;;;;16.55;8.40;;;20.40;55.10;;;;;;4998612;28;20038;-75
2023/01/12 05:22:41;;;;;;;12.35;6.80;;;20.40;54.70;;;;;;5011424;28;20042;-75
2023/01/12 05:25:07;;;;;;;12.73;6.38;;;20.40;54.90;;;;;;5011523;28;20116;-75
2023/01/12 05:27:33;;;;;;;17.00;8.48;;;20.40;54.80;;;;;;5004305;28;20060;-75
2023/01/12 05:29:59;;;;;;;14.27;7.60;;;20.40;54.40;;;;;;4993739;28;20446;-76
2023/01/12 05:32:26;;;;;;;13.82;6.78;;;20.50;54.60;;;;;;4990789;28;20367;-76
2023/01/12 05:34:52;;;;;;;14.38;7.18;;;20.40;54.70;;;;;;4993393;28;20060;-75
2023/01/12 05:37:18;;;;;;;13.23;7.18;;;20.40;54.60;;;;;;5011141;28;20112;-75
2023/01/12 05:39:44;;;;;;;12.80;6.30;;;20.40;54.60;;;;;;5009853;28;20042;-75
2023/01/12 05:44:54;;;;;;;14.23;7.25;;;20.40;54.50;;;;;;5010711;28;20072;-75
2023/01/12 05:47:20;;;;;;;16.92;7.82;;;20.50;54.40;;;;;;5038898;28;20052;-75
2023/01/12 05:49:46;;;;;;;16.30;7.47;;;20.60;54.40;;;;;;5091243;28;20039;-75
2023/01/12 05:52:12;;;;;;;15.65;7.93;;;20.50;54.30;;;;;;5073768;28;20179;-75
2023/01/12 05:54:38;;;;;;;14.57;8.00;;;20.50;54.20;;;;;;5076140;28;20142;-75
2023/01/12 05:57:04;;;;;;;15.48;7.50;;;20.50;54.20;;;;;;5092044;28;20032;-75
2023/01/12 05:59:30;;;;;;;15.90;6.68;;;20.40;54.00;;;;;;5092558;28;20070;-75
2023/01/12 06:01:56;;;;;;;16.88;7.82;;;20.50;54.10;;;;;;5081005;28;20366;-75
2023/01/12 06:04:22;;;;;;;18.00;7.68;;;20.50;54.10;;;;;;5073088;28;20048;-76
2023/01/12 06:06:48;;;;;;;12.95;7.43;;;20.40;54.00;;;;;;5076373;28;20035;-75
2023/01/12 06:09:14;;;;;;;14.90;8.48;;;20.40;53.90;;;;;;5073573;28;20445;-73
2023/01/12 06:14:25;;;;;;;12.25;7.05;;;20.40;54.70;;;;;;5076719;28;20039;-75
2023/01/12 06:16:51;;;;;;;11.25;5.85;;;20.50;51.00;;;;;;5061504;28;20035;-71
2023/01/12 06:19:17;;;;;;;10.95;4.75;;;20.70;48.20;;;;;;5081217;28;20148;-70
2023/01/12 06:21:43;;;;;;;8.95;4.93;;;20.70;47.80;;;;;;5089637;28;20032;-72
2023/01/12 06:24:09;;;;;;;11.38;5.68;;;20.90;45.60;;;;;;5080389;28;20029;-70
2023/01/12 06:26:35;;;;;;;4.50;3.05;;;20.80;44.40;;;;;;5080043;28;20658;-70
2023/01/12 06:29:04;;;;;;;2.65;1.50;;;21.00;48.60;;;;;;5072401;28;20040;-72
2023/01/12 06:31:30;;;;;;;4.88;1.92;;;21.30;60.20;;;;;;5060758;28;20038;-72
2023/01/12 06:33:56;;;;;;;1.90;1.30;;;21.60;59.40;;;;;;5090012;28;20028;-72
2023/01/12 06:36:22;;;;;;;3.15;2.50;;;21.70;58.60;;;;;;5076495;28;20056;-71
2023/01/12 06:38:48;;;;;;;7.00;2.67;;;21.90;57.90;;;;;;5072963;28;20043;-72
2023/01/12 06:43:59;;;;;;;3.05;2.25;;;22.20;53.60;;;;;;5087097;28;20034;-72
2023/01/12 06:46:26;;;;;;;16.13;7.65;;;22.20;51.70;;;;;;5079235;28;20033;-73
2023/01/12 06:48:55;;;;;;;12.45;6.40;;;22.30;52.50;;;;;;5083979;28;20464;-73
2023/01/12 06:51:21;;;;;;;10.93;5.82;;;22.30;52.90;;;;;;5067650;28;20465;-74
2023/01/12 06:53:47;;;;;;;14.07;5.95;;;22.30;56.00;;;;;;5090411;28;20035;-73
2023/01/12 06:56:12;;;;;;;13.65;6.47;;;22.30;55.30;;;;;;5022771;28;20579;-72
2023/01/12 06:58:42;;;;;;;9.70;5.22;;;22.40;56.20;;;;;;5010906;28;20076;-71
2023/01/12 07:01:08;;;;;;;13.52;5.80;;;22.40;54.40;;;;;;5016831;28;20041;-72
2023/01/12 07:03:34;;;;;;;12.13;5.30;;;22.40;53.50;;;;;;5013763;28;20115;-72
2023/01/12 07:06:00;;;;;;;10.85;5.28;;;22.40;53.00;;;;;;5020964;28;20077;-73
2023/01/12 07:08:26;;;;;;;6.95;3.65;;;22.40;52.40;;;;;;5009943;28;20046;-71
2023/01/12 07:10:53;;;;;;;10.80;6.40;;;22.40;51.60;;;;;;5015850;28;20077;-73
2023/01/12 07:13:19;;;;;;;11.60;6.18;;;22.60;51.20;;;;;;4986517;28;20124;-73
2023/01/12 07:15:45;;;;;;;19.90;8.02;;;22.50;51.50;;;;;;5014860;28;20133;-70
2023/01/12 07:18:10;;;;;;;10.70;6.22;;;22.50;50.50;;;;;;5010250;28;20064;-70
2023/01/12 07:20:36;;;;;;;16.85;7.45;;;22.40;51.00;;;;;;5013628;28;20508;-69
2023/01/12 07:23:02;;;;;;;15.68;7.40;;;22.20;52.10;;;;;;5024461;28;20088;-68
2023/01/12 07:25:28;;;;;;;18.58;8.80;;;22.10;53.40;;;;;;5026785;28;20046;-69
2023/01/12 07:27:56;;;;;;;9.68;5.85;;;22.10;43.00;;;;;;5068299;28;20483;-68
2023/01/12 07:30:23;;;;;;;11.45;5.97;;;22.30;41.90;;;;;;5084969;28;20036;-67
2023/01/12 07:32:49;;;;;;;11.38;5.95;;;22.60;41.50;;;;;;5081430;28;20043;-70
2023/01/12 07:35:16;;;;;;;10.63;5.40;;;22.60;39.40;;;;;;5090592;28;20108;-68
2023/01/12 07:37:55;;;;;;;12.30;4.88;;;22.70;39.40;;;;;;5078067;28;20448;-69
2023/01/12 07:40:21;;;;;;;7.93;5.13;;;22.80;34.60;;;;;;5072451;28;20032;-68
2023/01/12 07:42:47;;;;;;;12.18;5.93;;;22.70;33.30;;;;;;5074406;28;20039;-69
2023/01/12 07:45:13;;;;;;;10.43;6.25;;;22.90;32.50;;;;;;5075071;28;20109;-68
2023/01/12 07:47:39;;;;;;;6.18;4.10;;;22.80;33.80;;;;;;5082457;28;20064;-71
2023/01/12 07:50:05;;;;;;;7.65;5.00;;;22.90;31.80;;;;;;5091878;28;20157;-68
2023/01/12 07:52:31;;;;;;;10.00;6.05;;;22.80;31.60;;;;;;5090746;28;20481;-69
2023/01/12 07:54:57;;;;;;;10.45;5.47;;;22.90;35.10;;;;;;5083073;28;20163;-70
2023/01/12 07:57:23;;;;;;;13.38;7.10;;;22.90;49.60;;;;;;5083579;28;20047;-69
2023/01/12 07:59:49;;;;;;;9.90;4.60;;;22.80;53.00;;;;;;5072194;28;20373;-73
2023/01/12 08:02:15;;;;;;;11.52;7.15;;;22.80;55.20;;;;;;5036299;28;20048;-68
2023/01/12 08:04:42;;;;;;;14.43;6.88;;;22.80;56.60;;;;;;5089258;28;20035;-69
2023/01/12 08:07:09;;;;;;;7.97;5.03;;;22.80;55.80;;;;;;5091922;28;20028;-69
2023/01/12 08:09:35;;;;;;;12.13;6.57;;;22.60;56.10;;;;;;5037500;28;20056;-69
2023/01/12 08:12:01;;;;;;;10.95;6.15;;;22.60;62.10;;;;;;5089129;28;20131;-71
2023/01/12 08:14:32;;;;;;;9.85;5.70;;;22.80;42.20;;;;;;5071998;28;20074;-69
2023/01/12 08:17:00;;;;;;;12.45;5.30;;;23.00;38.30;;;;;;5067562;28;20032;-68
2023/01/12 08:19:37;;;;;;;14.55;7.80;;;23.10;39.50;;;;;;5091594;28;20032;-70
2023/01/12 08:22:08;;;;;;;13.05;6.50;;;23.30;47.50;;;;;;5080186;28;20043;-69
2023/01/12 08:24:39;;;;;;;12.27;7.88;;;23.30;37.00;;;;;;5071261;28;20452;-70
2023/01/12 08:27:07;;;;;;;15.13;8.25;;;23.50;51.70;;;;;;5084622;28;20427;-70
2023/01/12 08:29:42;;;;;;;12.13;7.03;;;23.40;53.30;;;;;;5081548;28;20028;-72
2023/01/12 08:32:12;;;;;;;16.13;6.38;;;23.30;54.10;;;;;;5091049;28;20116;-71
2023/01/12 08:34:40;;;;;;;12.32;6.95;;;23.30;55.00;;;;;;5089912;28;20043;-72
2023/01/12 08:37:10;;;;;;;14.50;7.07;;;23.20;55.80;;;;;;5091964;28;20448;-69
2023/01/12 08:39:37;;;;;;;14.95;9.15;;;23.00;56.50;;;;;;5076741;28;20361;-72
2023/01/12 08:42:04;;;;;;;16.00;7.32;;;22.90;56.70;;;;;;5093592;28;20085;-70
2023/01/12 08:44:33;;;;;;;16.23;7.10;;;22.80;57.60;;;;;;5073631;28;20452;-71
2023/01/12 08:46:59;;;;;;;13.88;7.97;;;22.60;58.40;;;;;;5093536;28;20064;-70
2023/01/12 08:49:27;;;;;;;19.48;7.45;;;22.40;58.50;;;;;;5091534;28;20020;-67
2023/01/12 08:51:54;;;;;;;16.60;8.25;;;22.30;59.80;;;;;;5075254;28;20044;-68
2023/01/12 08:54:20;;;;;;;14.82;6.78;;;22.20;59.30;;;;;;5083003;28;20036;-69
2023/01/12 08:56:48;;;;;;;14.82;7.07;;;22.20;59.40;;;;;;5090157;28;20020;-68
2023/01/12 08:59:18;;;;;;;11.35;6.60;;;22.10;59.60;;;;;;5090612;28;20128;-69
2023/01/12 09:01:44;;;;;;;11.07;7.30;;;22.10;59.60;;;;;;5090410;28;20097;-68
2023/01/12 09:04:11;;;;;;;17.13;8.25;;;21.90;59.70;;;;;;5085697;28;20035;-68
2023/01/12 09:06:39;;;;;;;14.93;7.47;;;21.90;60.80;;;;;;5071287;28;20036;-69
2023/01/12 09:09:14;;;;;;;16.15;8.18;;;21.90;60.70;;;;;;5070916;28;20494;-68
2023/01/12 09:11:41;;;;;;;11.85;5.97;;;21.80;60.90;;;;;;5083979;28;20055;-68
2023/01/12 09:14:08;;;;;;;9.88;6.13;;;21.80;62.20;;;;;;5090704;28;20055;-69
2023/01/12 09:16:34;;;;;;;11.65;6.60;;;21.90;61.30;;;;;;5089803;28;20043;-69
2023/01/12 09:19:00;;;;;;;13.98;6.60;;;22.10;61.10;;;;;;5091505;28;20722;-69
2023/01/12 09:21:28;;;;;;;10.65;6.85;;;22.10;61.00;;;;;;5075450;28;20508;-69
2023/01/12 09:23:54;;;;;;;8.02;5.38;;;22.00;61.00;;;;;;5068164;28;20048;-70
2023/01/12 09:26:30;;;;;;;10.38;5.22;;;22.00;61.40;;;;;;5069293;28;20047;-69
2023/01/12 09:28:58;;;;;;;11.27;6.10;;;22.00;61.70;;;;;;5065189;28;20028;-70
2023/01/12 09:31:25;;;;;;;8.55;5.70;;;21.90;61.40;;;;;;5078601;28;20043;-69
2023/01/12 09:33:52;;;;;;;8.25;5.28;;;22.00;62.10;;;;;;5073927;28;20023;-69
2023/01/12 09:36:21;;;;;;;8.15;6.00;;;22.00;62.30;;;;;;5028571;28;20127;-70
2023/01/12 09:38:48;;;;;;;7.97;4.78;;;22.00;62.00;;;;;;5082568;28;20456;-71
2023/01/12 09:46:57;;;;;;;9.00;5.38;;;22.10;62.80;;;;;;5054913;28;20028;-71
2023/01/12 09:47:14;;;;;;;9.38;5.75;;;22.00;61.10;;;;;;5093048;28;20028;-70
2023/01/12 09:49:44;;;;;;;9.85;5.32;;;22.10;61.90;;;;;;5071761;28;20040;-72
2023/01/12 09:52:25;;;;;;;9.13;5.40;;;22.00;62.10;;;;;;5072841;28;20036;-70
2023/01/12 09:54:52;;;;;;;9.80;5.68;;;21.90;62.40;;;;;;5084187;28;20499;-73
2023/01/12 09:57:48;;;;;;;8.02;5.07;;;21.90;62.60;;;;;;5055501;28;20040;-73
2023/01/12 10:00:17;;;;;;;6.75;3.80;;;21.90;63.10;;;;;;5054897;28;20507;-72
2023/01/12 10:03:08;;;;;;;9.27;4.80;;;21.80;62.80;;;;;;5072928;28;20078;-72
2023/01/12 10:05:47;;;;;;;10.50;4.18;;;21.90;63.00;;;;;;5072723;28;20060;-72
2023/01/12 10:08:29;;;;;;;9.75;5.65;;;21.90;63.30;;;;;;5081660;28;20166;-72
2023/01/12 10:11:29;;;;;;;7.72;4.20;;;22.00;62.80;;;;;;5089817;28;20397;-72
2023/01/12 10:14:16;;;;;;;7.18;4.35;;;22.10;63.00;;;;;;4998022;28;20061;-72
2023/01/12 10:17:22;;;;;;;12.00;5.55;;;22.20;62.70;;;;;;5003188;28;20688;-74
2023/01/12 10:20:12;;;;;;;8.60;5.22;;;22.20;62.50;;;;;;5004506;28;20058;-72
2023/01/12 10:22:52;;;;;;;8.93;4.55;;;22.10;62.90;;;;;;5009282;28;20038;-70
2023/01/12 10:25:36;;;;;;;8.65;5.80;;;22.00;63.00;;;;;;4992776;28;20034;-68
2023/01/12 10:28:28;;;;;;;12.05;5.70;;;21.90;63.30;;;;;;4993371;28;20837;-72
2023/01/12 10:30:55;;;;;;;8.60;5.28;;;21.80;63.40;;;;;;4982849;28;20054;-73
2023/01/12 10:33:33;;;;;;;9.68;5.65;;;21.80;64.50;;;;;;4989089;28;20050;-72
2023/01/12 10:36:18;;;;;;;6.30;3.30;;;21.90;55.60;;;;;;4989072;28;20043;-67
2023/01/12 10:39:00;;;;;;;15.35;5.28;;;22.40;54.60;;;;;;4988352;28;20057;-70
2023/01/12 10:41:39;;;;;;;15.77;5.22;;;23.00;52.40;;;;;;4988169;28;20116;-71
2023/01/12 10:44:13;;;;;;;12.18;6.32;;;23.20;47.60;;;;;;4989502;28;20062;-75
2023/01/12 10:46:40;;;;;;;8.23;5.28;;;23.20;46.30;;;;;;4988329;28;20438;-72
2023/01/12 10:49:19;;;;;;;7.43;4.50;;;23.30;41.80;;;;;;4986520;28;20050;-72
2023/01/12 10:51:53;;;;;;;14.02;6.35;;;23.30;39.90;;;;;;5018163;28;20048;-71
2023/01/12 10:54:40;;;;;;;13.07;6.03;;;23.20;41.60;;;;;;5027515;28;20048;-71
2023/01/12 10:57:15;;;;;;;6.60;4.25;;;23.10;40.60;;;;;;5006360;28;20525;-71
2023/01/12 10:59:58;;;;;;;8.50;4.70;;;23.10;39.40;;;;;;5027387;28;20429;-71
2023/01/12 11:02:27;;;;;;;11.13;5.30;;;23.10;40.10;;;;;;5019287;28;20048;-72
2023/01/12 11:04:53;;;;;;;5.38;3.85;;;23.00;39.10;;;;;;5028563;28;20045;-74
2023/01/12 11:07:28;;;;;;;10.48;6.20;;;23.00;38.80;;;;;;5034779;28;20133;-73
2023/01/12 11:09:57;;;;;;;9.80;6.32;;;23.20;55.10;;;;;;5085121;28;20067;-73
2023/01/12 11:12:34;;;;;;;7.85;6.10;;;23.20;56.90;;;;;;5055706;28;20039;-74
2023/01/12 11:15:00;;;;;;;9.48;6.13;;;23.30;58.00;;;;;;5091104;28;20036;-73
2023/01/12 11:17:35;;;;;;;10.75;6.72;;;23.70;57.60;;;;;;5072495;28;20035;-74
2023/01/12 11:20:13;;;;;;;14.35;7.20;;;23.90;52.60;;;;;;5091903;28;20028;-71
2023/01/12 11:22:41;;;;;;;12.80;7.65;;;24.10;58.50;;;;;;5081894;28;20039;-73
2023/01/12 11:25:16;;;;;;;11.30;7.97;;;23.90;58.40;;;;;;5086012;28;20041;-73
2023/01/12 11:28:03;;;;;;;11.60;6.28;;;23.80;59.00;;;;;;5089212;28;20040;-73
2023/01/12 11:30:51;;;;;;;14.07;6.95;;;23.50;60.50;;;;;;5089256;28;20043;-74
2023/01/12 11:33:26;;;;;;;8.73;5.70;;;23.90;61.90;;;;;;5071603;28;20032;-72
2023/01/12 11:36:07;;;;;;;8.57;6.13;;;24.10;61.60;;;;;;5071600;28;20034;-72
2023/01/12 11:38:46;;;;;;;8.65;6.88;;;24.50;68.80;;;;;;5082607;28;20036;-73
2023/01/12 11:45:07;;;;;;;10.00;6.03;;;24.90;72.40;;;;;;5009592;28;20222;-73
2023/01/12 11:47:40;;;;;;;9.07;6.03;;;25.20;72.10;;;;;;4992678;28;20042;-73
2023/01/12 11:50:14;;;;;;;9.75;6.55;;;25.20;68.40;;;;;;4989707;28;20153;-72
2023/01/12 11:52:41;;;;;;;11.15;6.68;;;24.90;62.30;;;;;;4974216;28;20666;-73
2023/01/12 11:55:14;;;;;;;11.68;7.03;;;24.70;60.80;;;;;;5009501;28;20055;-72
2023/01/12 11:57:56;;;;;;;9.27;5.70;;;24.50;61.00;;;;;;5009521;28;20510;-73
2023/01/12 12:00:56;;;;;;;12.15;6.38;;;24.20;61.20;;;;;;5007549;28;20046;-71
2023/01/12 12:03:54;;;;;;;13.77;6.38;;;24.10;62.00;;;;;;5004970;28;20072;-72
2023/01/12 12:06:50;;;;;;;25.85;11.55;;;23.80;62.20;;;;;;5010120;28;20050;-72
2023/01/12 12:09:19;;;;;;;12.65;7.05;;;23.70;63.30;;;;;;5011730;28;20394;-71
2023/01/12 12:11:53;;;;;;;12.27;6.35;;;23.60;64.80;;;;;;5012518;28;20045;-71
2023/01/12 12:14:47;;;;;;;13.13;6.78;;;23.70;64.60;;;;;;5016884;28;20047;-72
2023/01/12 12:17:38;;;;;;;11.32;6.97;;;23.50;64.20;;;;;;5031307;28;20060;-71
2023/01/12 12:20:11;;;;;;;13.73;6.50;;;23.50;64.10;;;;;;5031273;28;20091;-71
2023/01/12 12:22:58;;;;;;;12.38;5.63;;;23.40;64.10;;;;;;5032439;28;20039;-71
2023/01/12 12:25:41;;;;;;;13.15;6.25;;;23.50;64.70;;;;;;5092974;28;20039;-72
2023/01/12 12:28:26;;;;;;;11.63;6.20;;;23.30;64.20;;;;;;5095260;28;20035;-70
2023/01/12 12:31:15;;;;;;;10.65;6.10;;;23.40;64.30;;;;;;5092135;28;20060;-70
2023/01/12 12:33:53;;;;;;;12.40;7.00;;;23.50;63.80;;;;;;5077996;28;20473;-70
2023/01/12 12:36:41;;;;;;;16.88;9.00;;;23.40;63.10;;;;;;5094654;28;20115;-70
2023/01/12 12:39:41;;;;;;;73.72;25.85;;;23.10;63.20;;;;;;5093752;28;20097;-70
2023/01/12 12:45:28;;;;;;;9.82;6.30;;;23.00;64.10;;;;;;4975026;28;20121;-71
2023/01/12 12:48:13;;;;;;;10.73;6.38;;;22.90;64.90;;;;;;4956886;28;20179;-71
2023/01/12 12:50:45;;;;;;;10.40;6.70;;;22.80;64.20;;;;;;4972974;28;20057;-75
2023/01/12 12:53:34;;;;;;;13.98;6.63;;;22.80;64.10;;;;;;4973157;28;20082;-73
2023/01/12 12:56:03;;;;;;;14.07;7.90;;;22.70;64.20;;;;;;4973298;28;20447;-73
2023/01/12 12:58:40;;;;;;;11.77;7.85;;;22.80;64.70;;;;;;4977271;28;20042;-72
2023/01/12 13:01:23;;;;;;;14.68;8.02;;;22.80;64.30;;;;;;4992445;28;20047;-74
2023/01/12 13:03:52;;;;;;;14.75;8.10;;;22.70;64.60;;;;;;4972519;28;20046;-76
2023/01/12 13:06:24;;;;;;;20.95;9.10;;;22.70;64.80;;;;;;4972975;28;20046;-76
2023/01/12 13:08:52;;;;;;;14.10;7.88;;;22.80;64.40;;;;;;4972425;28;20039;-76
2023/01/12 13:11:19;;;;;;;11.98;7.07;;;22.80;64.60;;;;;;4972664;28;20054;-76
2023/01/12 13:14:02;;;;;;;12.25;8.10;;;22.80;64.30;;;;;;4972431;28;20186;-75
2023/01/12 13:16:30;;;;;;;13.85;7.55;;;22.80;64.00;;;;;;4972242;28;20038;-76
2023/01/12 13:18:56;;;;;;;8.57;6.22;;;22.80;64.20;;;;;;4971250;28;20121;-76
2023/01/12 13:21:25;;;;;;;11.88;7.30;;;23.00;64.20;;;;;;4977379;28;20125;-76
2023/01/12 13:23:53;;;;;;;9.68;6.35;;;22.80;63.80;;;;;;4993422;28;20125;-76
2023/01/12 13:26:32;;;;;;;15.65;7.28;;;22.90;64.10;;;;;;5073875;28;20115;-76
2023/01/12 13:29:26;;;;;;;10.18;6.75;;;22.80;63.80;;;;;;5055376;28;20114;-76
2023/01/12 13:32:29;;;;;;;14.82;8.30;;;22.80;63.70;;;;;;5073281;28;20085;-76
2023/01/12 13:34:55;;;;;;;9.98;6.70;;;22.80;63.80;;;;;;5073023;28;20361;-76
2023/01/12 13:37:42;;;;;;;14.60;6.95;;;22.80;63.60;;;;;;5073071;28;20047;-76
2023/01/12 13:40:28;;;;;;;9.98;6.53;;;22.80;63.70;;;;;;5073045;28;20037;-75
2023/01/12 13:43:18;;;;;;;9.63;6.22;;;22.70;63.90;;;;;;5073144;28;20039;-76